createdAt,value
2019-03-05T00:01:19.951Z,54.87
2019-03-05T00:03:49.274Z,54.57
2019-03-05T00:06:18.634Z,54.38
2019-03-05T00:08:48.262Z,54.25
2019-03-05T00:11:17.605Z,54.26
2019-03-05T00:13:47.005Z,54.30
2019-03-05T00:16:16.351Z,54.76
2019-03-05T00:18:45.682Z,54.71
2019-03-05T00:21:15.052Z,54.99
2019-03-05T00:23:52.000Z,54.91
2019-03-05T00:26:27.984Z,55.11
2019-03-05T00:29:30.832Z,54.96
2019-03-05T00:32:00.328Z,54.78
2019-03-05T00:34:56.412Z,54.83
2019-03-05T00:38:05.181Z,54.95
2019-03-05T00:41:12.085Z,55.01
2019-03-05T00:44:17.397Z,54.63
2019-03-05T00:47:24.441Z,54.94
2019-03-05T00:50:18.238Z,54.86
2019-03-05T00:53:33.571Z,55.22
2019-03-05T00:56:08.110Z,56.03
2019-03-05T00:59:18.668Z,56.91
2019-03-05T01:02:20.695Z,56.27
2019-03-05T01:05:45.909Z,56.51
2019-03-05T01:08:15.548Z,56.56
2019-03-05T01:10:44.918Z,56.96
2019-03-05T01:13:14.372Z,57.52
2019-03-05T01:15:44.005Z,57.11
2019-03-05T01:18:13.490Z,56.55
2019-03-05T01:20:42.864Z,56.18
2019-03-05T01:23:12.207Z,55.83
2019-03-05T01:25:41.680Z,56.18
2019-03-05T01:28:11.045Z,55.68
2019-03-05T01:31:04.275Z,55.80
2019-03-05T01:34:01.650Z,55.75
2019-03-05T01:36:33.766Z,55.63
2019-03-05T01:39:16.287Z,55.89
2019-03-05T01:41:45.643Z,56.33
2019-03-05T01:44:15.011Z,56.43
2019-03-05T01:46:44.351Z,56.63
2019-03-05T01:49:13.722Z,56.50
2019-03-05T01:51:43.075Z,56.59
2019-03-05T01:54:12.431Z,56.26
2019-03-05T01:56:41.794Z,56.21
2019-03-05T01:59:11.132Z,56.33
2019-03-05T02:01:40.555Z,57.07
2019-03-05T02:04:09.913Z,57.42
2019-03-05T02:06:39.290Z,57.18
2019-03-05T02:09:09.932Z,57.20
2019-03-05T02:11:39.273Z,57.27
2019-03-05T02:14:08.611Z,57.19
2019-03-05T02:16:37.942Z,57.66
2019-03-05T02:19:42.456Z,57.68
2019-03-05T02:22:15.472Z,57.40
2019-03-05T02:25:23.823Z,57.55
2019-03-05T02:28:10.854Z,57.16
2019-03-05T02:31:18.290Z,57.00
2019-03-05T02:34:24.706Z,56.72
2019-03-05T02:37:47.207Z,57.07
2019-03-05T02:40:43.835Z,57.19
2019-03-05T02:43:48.789Z,58.34
2019-03-05T02:47:14.985Z,58.87
2019-03-05T02:50:06.831Z,59.24
2019-03-05T02:53:04.448Z,59.10
2019-03-05T02:56:05.541Z,59.45
2019-03-05T02:58:33.115Z,59.17
2019-03-05T03:01:21.352Z,59.90
2019-03-05T03:03:54.207Z,59.99
2019-03-05T03:06:29.734Z,59.65
2019-03-05T03:09:52.246Z,59.99
2019-03-05T03:12:21.629Z,59.94
2019-03-05T03:14:51.031Z,59.83
2019-03-05T03:17:20.386Z,59.56
2019-03-05T03:19:49.735Z,59.12
2019-03-05T03:22:19.099Z,59.46
2019-03-05T03:24:48.442Z,59.04
2019-03-05T03:27:17.757Z,59.45
2019-03-05T03:29:47.128Z,58.59
2019-03-05T03:32:16.506Z,58.33
2019-03-05T03:34:45.900Z,58.73
2019-03-05T03:37:15.322Z,59.44
2019-03-05T03:39:44.703Z,59.78
2019-03-05T03:42:14.115Z,59.48
2019-03-05T03:44:43.553Z,60.08
2019-03-05T03:47:12.902Z,59.44
2019-03-05T03:49:42.268Z,58.96
2019-03-05T03:52:11.617Z,58.61
2019-03-05T03:54:40.981Z,58.42
2019-03-05T03:57:10.341Z,58.54
2019-03-05T03:59:39.688Z,58.63
2019-03-05T04:02:09.025Z,58.66
2019-03-05T04:04:38.419Z,58.67
2019-03-05T04:07:07.794Z,59.42
2019-03-05T04:09:37.197Z,59.78
2019-03-05T04:12:06.538Z,59.63
2019-03-05T04:14:35.898Z,60.11
2019-03-05T04:17:05.253Z,61.07
2019-03-05T04:19:35.527Z,61.09
2019-03-05T04:22:04.887Z,61.31
2019-03-05T04:24:34.233Z,60.85
2019-03-05T04:27:03.649Z,61.09
2019-03-05T04:29:33.020Z,61.32
2019-03-05T04:32:02.381Z,59.85
2019-03-05T04:34:31.758Z,60.39
2019-03-05T04:37:01.138Z,60.03
2019-03-05T04:39:30.535Z,59.72
2019-03-05T04:41:59.900Z,60.26
2019-03-05T04:44:52.053Z,60.67
2019-03-05T04:47:21.424Z,60.93
2019-03-05T04:49:56.702Z,61.29
2019-03-05T04:52:29.367Z,61.76
2019-03-05T04:54:58.723Z,61.83
2019-03-05T04:57:28.057Z,61.64
2019-03-05T04:59:57.377Z,61.63
2019-03-05T05:02:26.725Z,61.94
2019-03-05T05:04:56.103Z,61.90
2019-03-05T05:07:25.473Z,61.83
2019-03-05T05:09:54.818Z,61.72
2019-03-05T05:12:24.196Z,61.53
2019-03-05T05:14:53.526Z,61.52
2019-03-05T05:17:22.926Z,61.82
2019-03-05T05:19:52.301Z,61.60
2019-03-05T05:22:21.667Z,61.89
2019-03-05T05:24:51.032Z,62.05
2019-03-05T05:27:20.423Z,62.41
2019-03-05T05:29:49.773Z,62.73
2019-03-05T05:32:19.140Z,63.93
2019-03-05T05:34:48.556Z,63.13
2019-03-05T05:37:17.930Z,62.32
2019-03-05T05:40:24.850Z,62.26
2019-03-05T05:42:54.300Z,62.63
2019-03-05T05:45:25.011Z,62.88
2019-03-05T05:47:54.309Z,62.92
2019-03-05T05:50:23.660Z,62.73
2019-03-05T05:52:53.061Z,61.93
2019-03-05T05:55:22.423Z,61.54
2019-03-05T05:57:51.765Z,61.28
2019-03-05T06:00:21.197Z,61.01
2019-03-05T06:02:50.548Z,61.02
2019-03-05T06:05:19.907Z,59.95
2019-03-05T06:07:49.323Z,60.34
2019-03-05T06:10:18.673Z,60.80
2019-03-05T06:12:48.047Z,60.14
2019-03-05T06:15:17.582Z,59.25
2019-03-05T06:17:46.956Z,59.34
2019-03-05T06:20:16.447Z,59.38
2019-03-05T06:22:45.785Z,58.67
2019-03-05T06:25:15.362Z,58.25
2019-03-05T06:27:44.716Z,58.05
2019-03-05T06:30:14.984Z,58.21
2019-03-05T06:32:44.538Z,58.20
2019-03-05T06:35:14.088Z,57.95
2019-03-05T06:37:43.429Z,57.65
2019-03-05T06:40:14.578Z,57.46
2019-03-05T06:42:43.959Z,57.15
2019-03-05T06:45:15.761Z,56.72
2019-03-05T06:47:45.230Z,56.61
2019-03-05T06:50:14.889Z,56.11
2019-03-05T06:52:44.291Z,55.94
2019-03-05T06:55:13.900Z,56.01
2019-03-05T06:57:43.558Z,55.83
2019-03-05T07:00:31.111Z,55.71
2019-03-05T07:03:00.547Z,55.69
2019-03-05T07:06:05.635Z,55.51
2019-03-05T07:08:36.057Z,54.45
2019-03-05T07:11:53.988Z,54.34
2019-03-05T07:14:45.002Z,54.17
2019-03-05T07:17:21.581Z,54.16
2019-03-05T07:20:22.297Z,53.86
2019-03-05T07:23:07.779Z,53.06
2019-03-05T07:25:37.107Z,52.86
2019-03-05T07:28:06.551Z,52.95
2019-03-05T07:30:35.911Z,52.66
2019-03-05T07:33:05.337Z,52.44
2019-03-05T07:35:35.664Z,51.91
2019-03-05T07:38:05.303Z,51.40
2019-03-05T07:40:34.652Z,51.32
2019-03-05T07:43:04.017Z,50.77
2019-03-05T07:45:33.437Z,50.54
2019-03-05T07:48:02.843Z,51.23
2019-03-05T07:50:32.210Z,50.37
2019-03-05T07:53:01.591Z,49.70
2019-03-05T07:55:30.964Z,49.17
2019-03-05T07:58:00.330Z,48.66
2019-03-05T08:00:29.656Z,48.34
2019-03-05T08:02:59.021Z,48.25
2019-03-05T08:05:28.403Z,47.89
2019-03-05T08:08:26.410Z,47.41
2019-03-05T08:10:47.809Z,47.12
2019-03-05T08:13:36.205Z,46.51
2019-03-05T08:16:26.547Z,45.76
2019-03-05T08:18:56.406Z,45.49
2019-03-05T08:21:25.822Z,45.13
2019-03-05T08:23:55.191Z,45.03
2019-03-05T08:26:24.514Z,44.69
2019-03-05T08:28:53.926Z,44.61
2019-03-05T08:31:23.291Z,45.01
2019-03-05T08:33:52.611Z,44.23
2019-03-05T08:36:21.965Z,44.60
2019-03-05T08:38:51.328Z,44.78
2019-03-05T08:41:20.699Z,44.12
2019-03-05T08:43:50.110Z,43.53
2019-03-05T08:46:19.486Z,44.11
2019-03-05T08:48:48.866Z,43.39
2019-03-05T08:51:21.310Z,43.51
2019-03-05T08:53:50.680Z,42.93
2019-03-05T08:56:20.094Z,42.21
2019-03-05T08:58:49.475Z,41.59
2019-03-05T09:01:18.858Z,41.59
2019-03-05T09:03:48.319Z,41.85
2019-03-05T09:06:17.902Z,41.55
2019-03-05T09:08:47.287Z,41.13
2019-03-05T09:11:16.689Z,40.51
2019-03-05T09:13:46.461Z,40.54
2019-03-05T09:16:15.830Z,40.32
2019-03-05T09:18:45.200Z,39.73
2019-03-05T09:21:14.664Z,40.13
2019-03-05T09:23:44.040Z,39.54
2019-03-05T09:26:13.448Z,39.43
2019-03-05T09:28:42.806Z,39.29
2019-03-05T09:31:12.206Z,39.04
2019-03-05T09:33:41.691Z,38.79
2019-03-05T09:36:11.066Z,38.98
2019-03-05T09:38:40.451Z,38.90
2019-03-05T09:41:09.837Z,38.62
2019-03-05T09:43:39.180Z,39.18
2019-03-05T09:46:08.561Z,38.64
2019-03-05T09:48:37.931Z,38.38
2019-03-05T09:51:07.304Z,38.16
2019-03-05T09:53:36.654Z,38.40
2019-03-05T09:56:06.685Z,37.84
2019-03-05T09:58:36.822Z,37.02
2019-03-05T10:01:06.768Z,37.02
2019-03-05T10:03:36.107Z,36.85
2019-03-05T10:06:05.888Z,36.73
2019-03-05T10:08:35.276Z,35.86
2019-03-05T10:11:04.657Z,35.87
2019-03-05T10:13:34.205Z,35.31
2019-03-05T10:16:03.549Z,34.55
2019-03-05T10:18:32.897Z,34.66
2019-03-05T10:21:02.322Z,34.92
2019-03-05T10:23:31.683Z,34.58
2019-03-05T10:26:01.133Z,34.61
2019-03-05T10:28:30.682Z,34.44
2019-03-05T10:31:00.019Z,33.31
2019-03-05T10:33:29.413Z,33.20
2019-03-05T10:35:58.776Z,32.63
2019-03-05T10:38:28.189Z,32.43
2019-03-05T10:40:58.088Z,32.09
2019-03-05T10:43:27.496Z,31.62
2019-03-05T10:45:56.849Z,31.45
2019-03-05T10:48:26.243Z,32.38
2019-03-05T10:50:55.987Z,33.06
2019-03-05T10:53:25.834Z,34.08
2019-03-05T10:55:55.159Z,33.27
2019-03-05T10:58:33.346Z,33.07
2019-03-05T11:00:55.681Z,33.49
2019-03-05T11:03:27.042Z,34.91
2019-03-05T11:05:56.596Z,34.45
2019-03-05T11:08:26.775Z,34.30
2019-03-05T11:10:57.289Z,34.20
2019-03-05T11:13:26.670Z,33.89
2019-03-05T11:15:57.212Z,34.19
2019-03-05T11:18:29.768Z,34.48
2019-03-05T11:20:57.714Z,34.44
2019-03-05T11:23:27.065Z,34.10
2019-03-05T11:25:56.448Z,33.87
2019-03-05T11:28:25.830Z,34.12
2019-03-05T11:30:55.185Z,34.31
2019-03-05T11:33:24.685Z,34.80
2019-03-05T11:35:54.068Z,35.17
2019-03-05T11:38:23.436Z,35.49
2019-03-05T11:40:52.809Z,35.37
2019-03-05T11:43:22.183Z,35.74
2019-03-05T11:45:51.664Z,35.80
2019-03-05T11:48:21.024Z,35.88
2019-03-05T11:50:51.635Z,35.88
2019-03-05T11:53:21.149Z,35.76
2019-03-05T11:55:50.513Z,36.09
2019-03-05T11:58:19.884Z,35.96
2019-03-05T12:01:08.190Z,36.01
2019-03-05T12:03:37.573Z,36.22
2019-03-05T12:06:06.966Z,36.18
2019-03-05T12:08:36.354Z,36.15
2019-03-05T12:11:05.967Z,36.34
2019-03-05T12:13:35.334Z,36.55
2019-03-05T12:16:09.097Z,36.67
2019-03-05T12:18:38.434Z,36.60
2019-03-05T12:21:07.778Z,36.36
2019-03-05T12:23:37.142Z,36.29
2019-03-05T12:26:06.515Z,36.28
2019-03-05T12:28:36.006Z,36.05
2019-03-05T12:31:06.340Z,36.05
2019-03-05T12:33:35.713Z,35.99
2019-03-05T12:36:05.114Z,35.96
2019-03-05T12:38:34.473Z,35.64
2019-03-05T12:41:03.952Z,35.74
2019-03-05T12:43:33.315Z,35.58
2019-03-05T12:46:02.688Z,35.47
2019-03-05T12:48:39.994Z,35.61
2019-03-05T12:51:03.430Z,35.67
2019-03-05T12:53:32.785Z,35.48
2019-03-05T12:56:02.147Z,35.72
2019-03-05T12:58:31.524Z,35.66
2019-03-05T13:01:00.864Z,35.23
2019-03-05T13:03:30.207Z,35.25
2019-03-05T13:05:59.558Z,34.99
2019-03-05T13:08:28.942Z,35.05
2019-03-05T13:10:58.385Z,35.11
2019-03-05T13:13:27.920Z,34.50
2019-03-05T13:15:57.550Z,35.05
2019-03-05T13:18:30.941Z,34.89
2019-03-05T13:20:58.896Z,35.34
2019-03-05T13:23:30.599Z,35.27
2019-03-05T13:26:03.065Z,35.48
2019-03-05T13:28:36.825Z,35.88
2019-03-05T13:31:05.298Z,35.68
2019-03-05T13:33:38.003Z,35.58
2019-03-05T13:36:12.168Z,35.71
2019-03-05T13:38:41.690Z,35.70
2019-03-05T13:41:12.173Z,35.59
2019-03-05T13:43:42.009Z,35.68
2019-03-05T13:46:11.413Z,35.64
2019-03-05T13:49:14.485Z,36.00
2019-03-05T13:52:12.923Z,36.12
2019-03-05T13:55:40.438Z,36.18
2019-03-05T13:58:42.403Z,36.10
2019-03-05T14:01:13.032Z,36.39
2019-03-05T14:03:47.657Z,36.00
2019-03-05T14:06:32.776Z,36.37
2019-03-05T14:09:16.321Z,36.49
2019-03-05T14:11:48.241Z,36.74
2019-03-05T14:14:22.343Z,36.83
2019-03-05T14:17:02.933Z,36.98
2019-03-05T14:19:33.253Z,37.36
2019-03-05T14:22:04.694Z,37.29
2019-03-05T14:24:35.208Z,37.42
2019-03-05T14:27:05.712Z,37.42
2019-03-05T14:29:35.152Z,37.57
2019-03-05T14:32:07.871Z,37.71
2019-03-05T14:34:38.153Z,37.89
2019-03-05T14:37:08.464Z,37.89
2019-03-05T14:39:38.111Z,38.04
2019-03-05T14:42:10.459Z,38.25
2019-03-05T14:44:41.744Z,38.25
2019-03-05T14:47:11.180Z,38.35
2019-03-05T14:49:40.711Z,38.31
2019-03-05T14:52:10.124Z,38.48
2019-03-05T14:54:39.461Z,38.51
2019-03-05T14:57:08.826Z,38.51
2019-03-05T14:59:38.301Z,38.21
2019-03-05T15:02:07.986Z,38.40
2019-03-05T15:04:37.488Z,38.64
2019-03-05T15:07:07.485Z,38.64
2019-03-05T15:09:37.195Z,38.33
2019-03-05T15:12:06.846Z,38.96
2019-03-05T15:14:36.241Z,38.96
2019-03-05T15:17:06.821Z,38.45
2019-03-05T15:19:36.200Z,38.40
2019-03-05T15:22:05.736Z,37.93
2019-03-05T15:24:35.203Z,38.24
2019-03-05T15:27:05.815Z,38.50
2019-03-05T15:29:35.158Z,38.52
2019-03-05T15:34:45.198Z,38.65
2019-03-05T15:37:14.742Z,38.77
2019-03-05T15:39:44.165Z,38.83
2019-03-05T15:42:13.766Z,38.92
2019-03-05T15:44:43.139Z,38.92
2019-03-05T15:47:12.732Z,38.92
2019-03-05T15:49:42.139Z,38.92
2019-03-05T15:52:12.032Z,38.93
2019-03-05T15:54:41.392Z,39.16
2019-03-05T15:57:10.764Z,39.48
2019-03-05T15:59:40.219Z,39.48
2019-03-05T16:02:09.860Z,39.69
2019-03-05T16:04:40.893Z,40.21
2019-03-05T16:07:12.606Z,41.23
2019-03-05T16:09:43.930Z,41.19
2019-03-05T16:12:13.572Z,42.30
2019-03-05T16:14:43.116Z,42.68
2019-03-05T16:17:12.601Z,42.94
2019-03-05T16:19:42.225Z,43.12
2019-03-05T16:22:14.253Z,43.11
2019-03-05T16:24:42.726Z,43.33
2019-03-05T16:27:12.603Z,43.77
2019-03-05T16:29:42.007Z,44.50
2019-03-05T16:32:23.035Z,44.99
2019-03-05T16:35:18.496Z,45.29
2019-03-05T16:38:18.808Z,45.47
2019-03-05T16:41:20.504Z,45.82
2019-03-05T16:44:09.045Z,45.96
2019-03-05T16:46:56.065Z,46.53
2019-03-05T16:49:47.446Z,46.84
2019-03-05T16:52:30.754Z,46.92
2019-03-05T16:55:31.033Z,47.05
2019-03-05T16:58:19.347Z,47.07
2019-03-05T17:01:22.846Z,47.70
2019-03-05T17:04:14.173Z,47.91
2019-03-05T17:07:12.093Z,48.91
2019-03-05T17:10:15.616Z,49.21
2019-03-05T17:12:44.953Z,49.55
2019-03-05T17:15:14.916Z,49.76
2019-03-05T17:17:44.705Z,50.08
2019-03-05T17:20:14.131Z,50.20
2019-03-05T17:22:44.096Z,49.97
2019-03-05T17:25:15.620Z,50.42
2019-03-05T17:27:46.083Z,50.61
2019-03-05T17:30:17.726Z,50.97
2019-03-05T17:32:48.064Z,51.31
2019-03-05T17:35:18.129Z,51.39
2019-03-05T17:37:48.010Z,51.53
2019-03-05T17:40:17.499Z,51.58
2019-03-05T17:42:46.977Z,51.65
2019-03-05T17:45:19.351Z,51.85
2019-03-05T17:47:49.291Z,52.27
2019-03-05T17:50:20.635Z,52.26
2019-03-05T17:52:51.385Z,52.71
2019-03-05T17:55:24.717Z,53.03
2019-03-05T17:57:53.783Z,53.17
2019-03-05T18:00:32.289Z,53.57
2019-03-05T18:03:01.802Z,53.89
2019-03-05T18:05:31.554Z,53.89
2019-03-05T18:08:01.369Z,54.20
2019-03-05T18:10:31.325Z,54.41
2019-03-05T18:13:02.805Z,54.52
2019-03-05T18:15:32.740Z,54.83
2019-03-05T18:18:02.783Z,54.91
2019-03-05T18:20:32.789Z,55.15
2019-03-05T18:23:03.016Z,55.30
2019-03-05T18:25:32.898Z,55.48
2019-03-05T18:28:02.998Z,55.70
2019-03-05T18:30:33.511Z,55.85
2019-03-05T18:33:03.369Z,56.06
2019-03-05T18:35:33.198Z,56.00
2019-03-05T18:38:03.496Z,55.98
2019-03-05T18:40:34.428Z,56.00
2019-03-05T18:43:04.363Z,56.27
2019-03-05T18:45:33.962Z,56.29
2019-03-05T18:48:04.137Z,56.27
2019-03-05T18:50:34.623Z,56.33
2019-03-05T18:53:04.250Z,56.58
2019-03-05T18:55:34.261Z,56.52
2019-03-05T18:58:03.834Z,57.00
2019-03-05T19:00:33.623Z,57.13
2019-03-05T19:03:03.151Z,57.24
2019-03-05T19:05:32.476Z,57.43
2019-03-05T19:08:01.995Z,57.63
2019-03-05T19:10:31.511Z,57.80
2019-03-05T19:13:01.198Z,57.89
2019-03-05T19:15:31.054Z,58.07
2019-03-05T19:18:00.774Z,58.19
2019-03-05T19:20:30.429Z,58.14
2019-03-05T19:23:00.108Z,58.08
2019-03-05T19:25:29.540Z,57.92
2019-03-05T19:27:58.894Z,57.91
2019-03-05T19:30:30.500Z,58.05
2019-03-05T19:32:59.888Z,58.25
2019-03-05T19:35:29.350Z,58.33
2019-03-05T19:37:58.936Z,58.40
2019-03-05T19:40:30.484Z,58.34
2019-03-05T19:43:00.059Z,58.47
2019-03-05T19:45:29.484Z,58.71
2019-03-05T19:47:58.913Z,58.98
2019-03-05T19:50:29.345Z,59.30
2019-03-05T19:52:59.197Z,59.10
2019-03-05T19:55:28.649Z,59.17
2019-03-05T19:58:17.012Z,59.41
2019-03-05T20:00:56.127Z,59.77
2019-03-05T20:03:25.485Z,59.96
2019-03-05T20:05:54.855Z,59.99
2019-03-05T20:08:24.212Z,59.94
2019-03-05T20:10:53.679Z,60.01
2019-03-05T20:13:23.100Z,60.19
2019-03-05T20:15:52.682Z,60.34
2019-03-05T20:18:22.091Z,60.37
2019-03-05T20:20:51.669Z,60.31
2019-03-05T20:23:22.430Z,60.36
2019-03-05T20:25:52.297Z,60.39
2019-03-05T20:28:22.078Z,60.19
2019-03-05T20:30:51.717Z,59.96
2019-03-05T20:33:21.179Z,59.99
2019-03-05T20:35:51.181Z,60.05
2019-03-05T20:38:20.832Z,60.01
2019-03-05T20:40:50.232Z,60.22
2019-03-05T20:43:19.584Z,60.56
2019-03-05T20:45:49.239Z,60.72
2019-03-05T20:48:18.859Z,61.01
2019-03-05T20:50:48.233Z,61.29
2019-03-05T20:53:17.834Z,61.21
2019-03-05T20:55:47.356Z,61.55
2019-03-05T20:58:16.737Z,62.28
2019-03-05T21:00:51.048Z,62.40
2019-03-05T21:03:20.509Z,63.42
2019-03-05T21:05:49.858Z,64.24
2019-03-05T21:08:19.267Z,65.04
2019-03-05T21:10:48.875Z,65.08
2019-03-05T21:13:18.229Z,66.02
2019-03-05T21:15:47.654Z,66.45
2019-03-05T21:18:19.334Z,69.28
2019-03-05T21:20:48.305Z,76.48
2019-03-05T21:23:18.071Z,80.22
2019-03-05T21:25:47.430Z,82.77
2019-03-05T21:28:16.829Z,84.23
2019-03-05T21:30:46.200Z,86.22
2019-03-05T21:33:15.606Z,87.75
2019-03-05T21:35:45.012Z,88.95
2019-03-05T21:38:14.379Z,89.11
2019-03-05T21:40:43.763Z,90.96
2019-03-05T21:43:13.183Z,90.92
2019-03-05T21:45:42.734Z,91.70
2019-03-05T21:48:12.127Z,91.44
2019-03-05T21:50:41.494Z,90.77
2019-03-05T21:53:10.866Z,91.37
2019-03-05T21:55:40.238Z,91.02
2019-03-05T21:58:10.079Z,91.63
2019-03-05T22:00:39.488Z,92.16
2019-03-05T22:03:08.850Z,92.50
2019-03-05T22:05:38.285Z,90.48
2019-03-05T22:08:07.644Z,92.07
2019-03-05T22:10:37.362Z,91.22
2019-03-05T22:13:06.722Z,91.21
2019-03-05T22:15:36.775Z,90.13
2019-03-05T22:18:06.178Z,88.70
2019-03-05T22:20:35.547Z,88.25
2019-03-05T22:23:04.934Z,89.02
2019-03-05T22:25:34.317Z,89.17
2019-03-05T22:28:03.687Z,89.45
2019-03-05T22:30:33.037Z,88.05
2019-03-05T22:33:02.379Z,88.17
2019-03-05T22:35:31.736Z,87.96
2019-03-05T22:38:01.084Z,86.85
2019-03-05T22:40:30.510Z,86.33
2019-03-05T22:42:59.882Z,85.65
2019-03-05T22:45:29.249Z,86.54
2019-03-05T22:47:58.617Z,86.79
2019-03-05T22:50:28.012Z,86.36
2019-03-05T22:52:57.389Z,86.26
2019-03-05T22:55:26.780Z,86.43
2019-03-05T22:57:56.401Z,86.25
2019-03-05T23:00:54.135Z,86.69
2019-03-05T23:03:23.491Z,86.29
2019-03-05T23:05:53.237Z,85.90
2019-03-05T23:08:23.574Z,86.33
2019-03-05T23:10:52.898Z,86.21
2019-03-05T23:13:22.492Z,85.08
2019-03-05T23:15:52.344Z,84.64
2019-03-05T23:18:23.880Z,84.68
2019-03-05T23:20:53.357Z,85.07
2019-03-05T23:23:22.751Z,84.32
2019-03-05T23:25:52.114Z,84.17
2019-03-05T23:28:21.445Z,83.97
2019-03-05T23:30:50.801Z,84.10
2019-03-05T23:33:20.804Z,83.58
2019-03-05T23:35:50.134Z,84.17
2019-03-05T23:38:19.544Z,83.65
2019-03-05T23:40:49.162Z,84.20
2019-03-05T23:43:18.501Z,83.56
2019-03-05T23:45:47.886Z,83.74
2019-03-05T23:48:17.169Z,83.33
2019-03-05T23:50:46.518Z,83.10
2019-03-05T23:53:16.068Z,83.92
2019-03-05T23:55:45.404Z,84.22
2019-03-05T23:58:14.782Z,83.95
